createdAt,value
2023-02-14T00:00:37.294Z,7.97
2023-02-14T00:03:10.974Z,9.88
2023-02-14T00:05:44.605Z,10.27
2023-02-14T00:08:18.249Z,8.70
2023-02-14T00:10:51.802Z,8.25
2023-02-14T00:13:26.753Z,10.20
2023-02-14T00:15:59.262Z,9.23
2023-02-14T00:21:19.843Z,10.13
2023-02-14T00:23:53.353Z,7.63
2023-02-14T00:26:26.868Z,9.50
2023-02-14T00:29:02.192Z,12.38
2023-02-14T00:31:37.372Z,11.55
2023-02-14T00:34:11.822Z,10.07
2023-02-14T00:36:46.215Z,9.07
2023-02-14T00:39:22.357Z,10.55
2023-02-14T00:41:55.998Z,10.80
2023-02-14T00:44:30.993Z,9.30
2023-02-14T00:47:04.741Z,8.30
2023-02-14T00:49:38.439Z,6.95
2023-02-14T00:52:12.073Z,8.30
2023-02-14T00:54:45.676Z,7.70
2023-02-14T00:57:20.795Z,9.50
2023-02-14T00:59:55.734Z,7.20
2023-02-14T01:02:29.395Z,7.97
2023-02-14T01:05:02.945Z,8.18
2023-02-14T01:07:36.455Z,9.25
2023-02-14T01:10:10.737Z,10.98
2023-02-14T01:12:44.226Z,9.25
2023-02-14T01:15:19.350Z,7.63
2023-02-14T01:17:52.878Z,8.55
2023-02-14T01:20:28.547Z,7.53
2023-02-14T01:23:02.432Z,9.23
2023-02-14T01:25:38.477Z,6.78
2023-02-14T01:28:12.048Z,8.90
2023-02-14T01:30:48.800Z,7.78
2023-02-14T01:33:22.389Z,10.13
2023-02-14T01:35:56.091Z,7.82
2023-02-14T01:38:29.723Z,5.63
2023-02-14T01:41:03.308Z,7.82
2023-02-14T01:43:51.765Z,6.40
2023-02-14T01:46:27.466Z,9.02
2023-02-14T01:49:05.021Z,6.38
2023-02-14T01:51:44.509Z,9.07
2023-02-14T01:54:19.244Z,8.68
2023-02-14T01:56:58.433Z,7.40
2023-02-14T01:59:35.636Z,8.25
2023-02-14T02:02:11.843Z,12.07
2023-02-14T02:04:47.710Z,8.63
2023-02-14T02:07:27.750Z,7.53
2023-02-14T02:10:03.994Z,11.70
2023-02-14T02:12:38.349Z,11.30
2023-02-14T02:15:11.997Z,8.60
2023-02-14T02:17:57.262Z,7.00
2023-02-14T02:21:04.356Z,7.47
2023-02-14T02:24:03.018Z,9.77
2023-02-14T02:27:08.745Z,9.10
2023-02-14T02:30:39.568Z,7.75
2023-02-14T02:33:49.916Z,8.63
2023-02-14T02:36:52.899Z,9.02
2023-02-14T02:39:47.718Z,8.80
2023-02-14T02:42:30.833Z,11.73
2023-02-14T02:47:53.154Z,10.18
2023-02-14T02:50:48.746Z,12.52
2023-02-14T02:53:30.043Z,10.77
2023-02-14T02:56:37.573Z,15.43
2023-02-14T02:59:18.484Z,12.88
2023-02-14T03:02:03.356Z,12.95
2023-02-14T03:05:03.397Z,12.88
2023-02-14T03:07:39.543Z,13.70
2023-02-14T03:10:18.575Z,13.20
2023-02-14T03:13:35.276Z,16.02
2023-02-14T03:16:51.734Z,11.68
2023-02-14T03:19:57.322Z,12.95
2023-02-14T03:22:42.358Z,13.05
2023-02-14T03:25:33.147Z,13.85
2023-02-14T03:28:16.573Z,14.13
2023-02-14T03:31:03.562Z,15.50
2023-02-14T03:33:45.363Z,15.95
2023-02-14T03:36:23.605Z,12.70
2023-02-14T03:39:03.976Z,13.20
2023-02-14T03:41:44.974Z,15.65
2023-02-14T03:44:22.297Z,13.13
2023-02-14T03:46:59.852Z,12.75
2023-02-14T03:49:38.584Z,12.98
2023-02-14T03:52:13.797Z,11.05
2023-02-14T03:54:52.361Z,13.07
2023-02-14T03:57:31.130Z,14.48
2023-02-14T04:00:06.848Z,10.98
2023-02-14T04:02:49.484Z,10.10
2023-02-14T04:05:26.284Z,12.68
2023-02-14T04:08:02.931Z,10.13
2023-02-14T04:10:36.631Z,11.80
2023-02-14T04:13:11.591Z,6.65
2023-02-14T04:15:46.479Z,11.98
2023-02-14T04:18:37.504Z,9.38
2023-02-14T04:21:11.086Z,9.00
2023-02-14T04:23:44.622Z,10.85
2023-02-14T04:26:18.155Z,10.60
2023-02-14T04:28:53.157Z,12.38
2023-02-14T04:31:26.890Z,6.72
2023-02-14T04:34:00.430Z,8.32
2023-02-14T04:36:34.016Z,8.05
2023-02-14T04:39:07.682Z,9.40
2023-02-14T04:41:41.374Z,10.65
2023-02-14T04:44:16.315Z,10.55
2023-02-14T04:46:49.922Z,10.68
2023-02-14T04:49:23.665Z,9.18
2023-02-14T04:51:57.229Z,9.13
2023-02-14T04:54:30.848Z,12.80
2023-02-14T04:57:04.401Z,11.30
2023-02-14T04:59:39.322Z,9.48
2023-02-14T05:02:12.933Z,7.55
2023-02-14T05:04:48.207Z,6.40
2023-02-14T05:07:23.217Z,9.40
2023-02-14T05:09:56.916Z,7.20
2023-02-14T05:12:30.404Z,7.82
2023-02-14T05:15:05.710Z,6.25
2023-02-14T05:17:39.292Z,7.82
2023-02-14T05:20:13.261Z,4.90
2023-02-14T05:22:46.784Z,6.65
2023-02-14T05:25:20.492Z,7.85
2023-02-14T05:27:54.050Z,8.50
2023-02-14T05:30:30.403Z,11.77
2023-02-14T05:33:04.062Z,9.05
2023-02-14T05:35:38.020Z,7.80
2023-02-14T05:38:13.241Z,9.00
2023-02-14T05:40:47.314Z,8.25
2023-02-14T05:43:22.880Z,7.90
2023-02-14T05:45:58.030Z,13.40
2023-02-14T05:48:31.661Z,9.80
2023-02-14T05:51:06.137Z,11.65
2023-02-14T05:53:40.151Z,9.32
2023-02-14T05:56:13.778Z,9.98
2023-02-14T05:58:47.392Z,7.15
2023-02-14T06:01:22.345Z,10.48
2023-02-14T06:03:55.871Z,6.43
2023-02-14T06:06:29.352Z,9.60
2023-02-14T06:09:03.551Z,7.82
2023-02-14T06:11:37.308Z,11.10
2023-02-14T06:14:10.828Z,6.40
2023-02-14T06:16:45.809Z,8.13
2023-02-14T06:19:19.424Z,6.47
2023-02-14T06:21:52.906Z,6.95
2023-02-14T06:24:26.439Z,7.00
2023-02-14T06:27:01.584Z,5.25
2023-02-14T06:29:35.187Z,9.90
2023-02-14T06:32:10.267Z,8.68
2023-02-14T06:34:43.830Z,8.27
2023-02-14T06:37:17.407Z,7.50
2023-02-14T06:39:51.152Z,4.95
2023-02-14T06:42:24.800Z,5.65
2023-02-14T06:44:58.366Z,8.05
2023-02-14T06:47:34.964Z,7.20
2023-02-14T06:50:11.754Z,6.22
2023-02-14T06:52:45.353Z,5.85
2023-02-14T06:55:19.197Z,6.22
2023-02-14T06:57:52.686Z,8.75
2023-02-14T07:00:26.232Z,5.05
2023-02-14T07:03:01.434Z,4.90
2023-02-14T07:05:35.756Z,8.48
2023-02-14T07:08:09.341Z,7.78
2023-02-14T07:10:42.884Z,8.30
2023-02-14T07:13:16.840Z,3.58
2023-02-14T07:15:50.550Z,6.28
2023-02-14T07:18:25.640Z,5.55
2023-02-14T07:20:59.381Z,4.43
2023-02-14T07:23:33.158Z,8.05
2023-02-14T07:26:06.879Z,3.13
2023-02-14T07:28:40.398Z,3.83
2023-02-14T07:31:14.190Z,6.05
2023-02-14T07:33:49.357Z,4.28
2023-02-14T07:36:22.975Z,5.00
2023-02-14T07:38:57.511Z,7.78
2023-02-14T07:41:31.204Z,5.38
2023-02-14T07:44:04.831Z,4.07
2023-02-14T07:46:38.406Z,5.75
2023-02-14T07:49:13.441Z,5.00
2023-02-14T07:51:46.989Z,3.97
2023-02-14T07:54:21.266Z,7.00
2023-02-14T07:56:54.850Z,4.97
2023-02-14T07:59:28.403Z,3.50
2023-02-14T08:02:02.065Z,3.03
2023-02-14T08:04:37.096Z,7.07
2023-02-14T08:07:10.669Z,3.10
2023-02-14T08:09:44.166Z,6.28
2023-02-14T08:12:34.925Z,8.55
2023-02-14T08:15:26.202Z,13.02
2023-02-14T08:17:59.854Z,3.92
2023-02-14T08:20:34.979Z,4.70
2023-02-14T08:23:08.603Z,5.13
2023-02-14T08:25:44.171Z,6.68
2023-02-14T08:28:18.091Z,4.55
2023-02-14T08:30:52.299Z,9.27
2023-02-14T08:33:26.103Z,2.88
2023-02-14T08:36:01.644Z,4.22
2023-02-14T08:38:35.363Z,6.95
2023-02-14T08:41:09.637Z,3.75
2023-02-14T08:43:43.646Z,4.53
2023-02-14T08:46:19.224Z,5.03
2023-02-14T08:48:53.596Z,5.00
2023-02-14T08:51:31.459Z,4.55
2023-02-14T08:54:05.509Z,5.35
2023-02-14T08:56:40.775Z,9.30
2023-02-14T08:59:15.318Z,4.43
2023-02-14T09:01:48.987Z,6.05
2023-02-14T09:04:22.683Z,4.65
2023-02-14T09:06:57.651Z,5.05
2023-02-14T09:09:31.636Z,9.32
2023-02-14T09:12:06.208Z,4.07
2023-02-14T09:14:43.954Z,5.78
2023-02-14T09:17:17.830Z,5.75
2023-02-14T09:19:51.431Z,5.40
2023-02-14T09:22:26.628Z,6.43
2023-02-14T09:25:00.513Z,6.30
2023-02-14T09:27:34.098Z,8.52
2023-02-14T09:30:09.519Z,8.68
2023-02-14T09:32:43.119Z,10.15
2023-02-14T09:35:16.730Z,6.43
2023-02-14T09:38:08.919Z,10.73
2023-02-14T09:40:42.791Z,6.15
2023-02-14T09:43:23.850Z,6.95
2023-02-14T09:45:59.721Z,10.10
2023-02-14T09:48:36.918Z,4.80
2023-02-14T09:51:15.933Z,7.47
2023-02-14T09:53:55.297Z,7.07
2023-02-14T09:56:42.842Z,6.43
2023-02-14T09:59:30.017Z,8.90
2023-02-14T10:02:23.809Z,8.57
2023-02-14T10:05:07.738Z,9.35
2023-02-14T10:07:52.850Z,11.45
2023-02-14T10:10:32.664Z,8.50
2023-02-14T10:13:14.002Z,8.70
2023-02-14T10:15:50.569Z,7.10
2023-02-14T10:18:28.924Z,7.40
2023-02-14T10:21:05.084Z,8.98
2023-02-14T10:23:44.718Z,16.17
2023-02-14T10:26:26.022Z,7.00
2023-02-14T10:28:59.623Z,10.30
2023-02-14T10:31:39.799Z,8.82
2023-02-14T10:34:20.024Z,7.85
2023-02-14T10:37:04.517Z,7.15
2023-02-14T10:39:57.281Z,8.50
2023-02-14T10:42:45.165Z,9.10
2023-02-14T10:45:24.146Z,12.93
2023-02-14T10:48:05.851Z,11.65
2023-02-14T10:50:45.657Z,9.30
2023-02-14T10:53:24.788Z,8.60
2023-02-14T10:56:02.716Z,11.07
2023-02-14T10:58:40.299Z,13.48
2023-02-14T11:01:15.904Z,7.07
2023-02-14T11:03:56.207Z,10.10
2023-02-14T11:06:29.800Z,11.38
2023-02-14T11:09:03.489Z,6.80
2023-02-14T11:11:41.221Z,8.63
2023-02-14T11:14:28.659Z,7.88
2023-02-14T11:17:21.538Z,8.05
2023-02-14T11:19:59.332Z,9.05
2023-02-14T11:22:33.830Z,13.15
2023-02-14T11:25:09.438Z,7.57
2023-02-14T11:27:49.848Z,14.20
2023-02-14T11:30:31.262Z,8.27
2023-02-14T11:33:05.649Z,11.00
2023-02-14T11:35:40.011Z,8.35
2023-02-14T11:38:30.574Z,6.97
2023-02-14T11:41:05.980Z,10.10
2023-02-14T11:43:41.832Z,12.55
2023-02-14T11:46:27.074Z,7.78
2023-02-14T11:49:03.211Z,5.80
2023-02-14T11:51:40.303Z,7.10
2023-02-14T11:54:28.507Z,8.98
2023-02-14T11:57:08.635Z,7.95
2023-02-14T11:59:45.629Z,4.72
2023-02-14T12:02:30.406Z,9.80
2023-02-14T12:05:16.935Z,9.10
2023-02-14T12:07:53.938Z,10.85
2023-02-14T12:10:28.934Z,10.43
2023-02-14T12:13:05.666Z,6.47
2023-02-14T12:15:41.403Z,8.25
2023-02-14T12:18:41.950Z,7.60
2023-02-14T12:21:42.028Z,11.15
2023-02-14T12:24:27.761Z,8.98
2023-02-14T12:27:12.049Z,7.28
2023-02-14T12:29:49.815Z,8.55
2023-02-14T12:32:24.963Z,11.32
2023-02-14T12:35:07.530Z,8.55
2023-02-14T12:38:02.679Z,8.75
2023-02-14T12:40:51.869Z,6.72
2023-02-14T12:43:39.410Z,7.78
2023-02-14T12:46:33.060Z,7.45
2023-02-14T12:49:40.478Z,9.75
2023-02-14T12:52:30.899Z,7.30
2023-02-14T12:55:26.426Z,8.40
2023-02-14T12:58:06.856Z,10.77
2023-02-14T13:00:50.509Z,11.68
2023-02-14T13:03:44.970Z,8.10
2023-02-14T13:06:25.690Z,8.32
2023-02-14T13:09:16.066Z,8.98
2023-02-14T13:12:01.517Z,8.48
2023-02-14T13:14:50.304Z,8.15
2023-02-14T13:17:34.859Z,8.90
2023-02-14T13:20:35.267Z,10.30
2023-02-14T13:23:16.422Z,8.35
2023-02-14T13:25:57.342Z,9.20
2023-02-14T13:28:32.989Z,9.43
2023-02-14T13:31:07.472Z,12.27
2023-02-14T13:33:45.596Z,9.30
2023-02-14T13:36:19.746Z,6.50
2023-02-14T13:41:35.938Z,12.88
2023-02-14T13:44:09.912Z,7.63
2023-02-14T13:46:53.141Z,10.07
2023-02-14T13:49:32.928Z,10.63
2023-02-14T13:52:07.761Z,9.57
2023-02-14T13:54:47.584Z,9.50
2023-02-14T13:57:34.011Z,11.57
2023-02-14T14:00:40.316Z,8.63
2023-02-14T14:03:39.152Z,8.60
2023-02-14T14:06:14.616Z,10.07
2023-02-14T14:08:50.196Z,7.72
2023-02-14T14:11:52.216Z,8.23
2023-02-14T14:14:39.984Z,9.35
2023-02-14T14:17:26.310Z,13.13
2023-02-14T14:20:01.145Z,11.52
2023-02-14T14:22:47.980Z,10.07
2023-02-14T14:25:32.709Z,8.20
2023-02-14T14:28:12.226Z,7.57
2023-02-14T14:30:47.705Z,9.20
2023-02-14T14:33:28.645Z,12.95
2023-02-14T14:36:06.080Z,8.30
2023-02-14T14:38:49.413Z,7.85
2023-02-14T14:41:31.205Z,6.95
2023-02-14T14:44:06.960Z,12.50
2023-02-14T14:46:42.449Z,7.70
2023-02-14T14:49:18.362Z,10.30
2023-02-14T14:51:52.009Z,9.80
2023-02-14T14:54:27.685Z,8.73
2023-02-14T14:57:03.296Z,10.00
2023-02-14T14:59:38.153Z,9.63
2023-02-14T15:02:26.376Z,9.10
2023-02-14T15:05:14.751Z,11.90
2023-02-14T15:07:48.404Z,8.30
2023-02-14T15:10:28.145Z,10.90
2023-02-14T15:13:19.317Z,12.60
2023-02-14T15:15:53.253Z,7.88
2023-02-14T15:18:28.990Z,8.95
2023-02-14T15:21:04.727Z,11.90
2023-02-14T15:23:38.297Z,9.70
2023-02-14T15:26:18.300Z,9.00
2023-02-14T15:29:00.035Z,10.40
2023-02-14T15:31:36.734Z,10.55
2023-02-14T15:34:14.697Z,9.90
2023-02-14T15:36:54.016Z,7.80
2023-02-14T15:39:34.479Z,6.68
2023-02-14T15:42:25.888Z,12.05
2023-02-14T15:45:22.403Z,13.05
2023-02-14T15:47:58.395Z,14.35
2023-02-14T15:50:36.682Z,12.82
2023-02-14T15:53:29.333Z,12.35
2023-02-14T15:56:09.247Z,21.17
2023-02-14T15:58:45.399Z,13.85
2023-02-14T16:01:22.473Z,14.07
2023-02-14T16:03:59.774Z,10.95
2023-02-14T16:06:40.622Z,15.05
2023-02-14T16:09:27.616Z,12.48
2023-02-14T16:12:01.149Z,12.75
2023-02-14T16:14:37.042Z,11.15
2023-02-14T16:17:14.764Z,17.15
2023-02-14T16:19:48.303Z,14.70
2023-02-14T16:22:32.034Z,17.05
2023-02-14T16:25:07.232Z,13.15
2023-02-14T16:27:40.971Z,11.68
2023-02-14T16:30:19.094Z,16.75
2023-02-14T16:32:53.778Z,17.70
2023-02-14T16:35:27.414Z,31.73
2023-02-14T16:38:02.421Z,19.60
2023-02-14T16:40:36.364Z,27.58
2023-02-14T16:43:13.933Z,20.58
2023-02-14T16:45:48.110Z,15.52
2023-02-14T16:48:21.795Z,22.88
2023-02-14T16:50:55.348Z,22.38
2023-02-14T16:53:30.538Z,17.27
2023-02-14T16:56:04.193Z,26.05
2023-02-14T16:58:38.150Z,22.35
2023-02-14T17:01:11.694Z,24.38
2023-02-14T17:03:45.270Z,31.52
2023-02-14T17:06:23.312Z,43.67
2023-02-14T17:08:59.804Z,43.13
2023-02-14T17:11:36.544Z,34.00
2023-02-14T17:14:11.715Z,41.40
2023-02-14T17:16:45.441Z,57.33
2023-02-14T17:19:19.284Z,63.65
2023-02-14T17:21:53.131Z,93.15
2023-02-14T17:24:28.251Z,84.30
2023-02-14T17:27:01.755Z,79.88
2023-02-14T17:29:35.449Z,86.50
2023-02-14T17:32:12.403Z,69.65
2023-02-14T17:34:46.113Z,107.65
2023-02-14T17:37:19.943Z,87.00
2023-02-14T17:39:55.606Z,94.90
2023-02-14T17:42:29.209Z,86.75
2023-02-14T17:45:04.513Z,75.88
2023-02-14T17:47:37.973Z,89.47
2023-02-14T17:50:13.111Z,80.53
2023-02-14T17:52:46.674Z,87.22
2023-02-14T17:55:21.604Z,105.18
2023-02-14T17:57:55.170Z,110.72
2023-02-14T18:00:29.314Z,106.95
2023-02-14T18:03:02.845Z,119.63
2023-02-14T18:05:37.953Z,110.50
2023-02-14T18:08:11.457Z,119.28
2023-02-14T18:10:46.834Z,112.15
2023-02-14T18:13:20.355Z,112.38
2023-02-14T18:15:54.700Z,122.65
2023-02-14T18:18:28.243Z,112.15
2023-02-14T18:21:03.893Z,112.32
2023-02-14T18:23:37.815Z,65.53
2023-02-14T18:26:14.625Z,109.97
2023-02-14T18:28:48.963Z,118.00
2023-02-14T18:31:22.965Z,136.02
2023-02-14T18:33:56.910Z,128.15
2023-02-14T18:36:31.775Z,131.60
2023-02-14T18:39:13.655Z,141.50
2023-02-14T18:41:51.340Z,123.07
2023-02-14T18:44:24.822Z,87.30
2023-02-14T18:47:00.632Z,110.43
2023-02-14T18:49:34.357Z,106.32
2023-02-14T18:52:07.874Z,100.20
2023-02-14T18:54:41.516Z,101.95
2023-02-14T18:57:16.452Z,81.47
2023-02-14T18:59:50.073Z,89.80
2023-02-14T19:02:23.707Z,88.20
2023-02-14T19:04:57.273Z,86.28
2023-02-14T19:07:31.829Z,84.13
2023-02-14T19:10:07.039Z,72.95
2023-02-14T19:12:42.036Z,84.03
2023-02-14T19:15:15.659Z,71.25
2023-02-14T19:17:49.640Z,63.80
2023-02-14T19:20:23.186Z,83.43
2023-02-14T19:22:56.690Z,57.95
2023-02-14T19:25:32.647Z,62.42
2023-02-14T19:28:07.848Z,59.78
2023-02-14T19:30:41.406Z,55.50
2023-02-14T19:33:15.418Z,49.40
2023-02-14T19:35:50.255Z,53.13
2023-02-14T19:38:23.941Z,96.47
2023-02-14T19:40:58.279Z,117.32
2023-02-14T19:43:33.312Z,156.77
2023-02-14T19:46:07.432Z,43.00
2023-02-14T19:48:41.139Z,99.25
2023-02-14T19:51:17.498Z,83.13
2023-02-14T19:53:51.225Z,55.97
2023-02-14T19:56:26.506Z,32.25
2023-02-14T19:59:07.667Z,29.30
2023-02-14T20:01:43.084Z,21.58
2023-02-14T20:04:19.290Z,17.17
2023-02-14T20:06:53.654Z,25.75
2023-02-14T20:09:28.213Z,21.75
2023-02-14T20:12:01.893Z,18.30
2023-02-14T20:14:50.507Z,20.00
2023-02-14T20:17:24.704Z,20.85
2023-02-14T20:19:58.518Z,20.00
2023-02-14T20:22:32.117Z,19.10
2023-02-14T20:25:06.456Z,17.65
2023-02-14T20:27:40.098Z,18.38
2023-02-14T20:30:20.735Z,21.83
2023-02-14T20:32:54.297Z,21.65
2023-02-14T20:35:27.989Z,17.90
2023-02-14T20:38:01.689Z,19.05
2023-02-14T20:40:38.720Z,16.15
2023-02-14T20:43:12.348Z,15.80
2023-02-14T20:45:47.322Z,18.10
2023-02-14T20:48:20.893Z,20.45
2023-02-14T20:50:54.535Z,26.20
2023-02-14T20:53:28.140Z,18.38
2023-02-14T20:56:01.645Z,18.42
2023-02-14T20:58:36.680Z,16.80
2023-02-14T21:01:13.297Z,16.90
2023-02-14T21:03:48.562Z,18.75
2023-02-14T21:06:23.539Z,18.77
2023-02-14T21:08:57.571Z,19.70
2023-02-14T21:11:31.318Z,17.38
2023-02-14T21:14:04.978Z,19.48
2023-02-14T21:16:40.002Z,15.90
2023-02-14T21:19:13.565Z,16.77
2023-02-14T21:21:47.114Z,21.27
2023-02-14T21:24:20.654Z,15.75
2023-02-14T21:26:54.194Z,14.93
2023-02-14T21:29:27.741Z,22.92
2023-02-14T21:32:03.895Z,15.95
2023-02-14T21:34:37.726Z,24.25
2023-02-14T21:37:11.432Z,15.40
2023-02-14T21:39:45.596Z,14.15
2023-02-14T21:42:21.196Z,18.33
2023-02-14T21:45:11.849Z,16.15
2023-02-14T21:48:06.802Z,15.95
2023-02-14T21:50:39.338Z,27.58
2023-02-14T21:55:46.569Z,36.22
2023-02-14T21:58:20.081Z,43.00
2023-02-14T22:00:54.863Z,43.85
2023-02-14T22:03:29.796Z,46.30
2023-02-14T22:06:04.067Z,48.67
2023-02-14T22:08:38.011Z,67.13
2023-02-14T22:11:13.153Z,72.78
2023-02-14T22:13:46.825Z,83.60
2023-02-14T22:16:22.273Z,84.43
2023-02-14T22:18:57.309Z,62.17
2023-02-14T22:21:33.455Z,50.63
2023-02-14T22:24:07.352Z,35.00
2023-02-14T22:26:41.802Z,36.60
2023-02-14T22:29:15.522Z,55.60
2023-02-14T22:31:49.132Z,41.63
2023-02-14T22:34:24.231Z,36.35
2023-02-14T22:36:57.920Z,95.60
2023-02-14T22:39:31.513Z,84.13
2023-02-14T22:42:06.906Z,69.30
2023-02-14T22:44:40.412Z,74.68
2023-02-14T22:47:13.885Z,69.53
2023-02-14T22:49:48.778Z,65.93
2023-02-14T22:52:22.266Z,78.68
2023-02-14T22:54:55.849Z,55.22
2023-02-14T22:57:29.598Z,52.55
2023-02-14T23:00:03.096Z,99.32
2023-02-14T23:02:36.825Z,92.03
2023-02-14T23:05:12.134Z,90.25
2023-02-14T23:07:45.635Z,79.40
2023-02-14T23:10:19.304Z,73.70
2023-02-14T23:13:09.860Z,94.45
2023-02-14T23:16:00.920Z,76.18
2023-02-14T23:18:51.780Z,86.25
2023-02-14T23:21:44.409Z,66.07
2023-02-14T23:24:17.906Z,76.55
2023-02-14T23:26:51.669Z,77.60
2023-02-14T23:29:25.493Z,98.28
2023-02-14T23:31:59.358Z,79.82
2023-02-14T23:34:36.366Z,94.53
2023-02-14T23:37:12.173Z,82.10
2023-02-14T23:39:45.701Z,77.78
2023-02-14T23:42:19.249Z,67.63
2023-02-14T23:44:52.759Z,79.10
2023-02-14T23:47:26.250Z,63.85
2023-02-14T23:49:59.776Z,75.25
2023-02-14T23:52:35.199Z,67.18
2023-02-14T23:55:09.793Z,68.15
2023-02-14T23:57:43.248Z,77.30
